Time;durP1;ratioP1;P1;durP2;ratioP2;P2;SDS_P1;SDS_P2;PMS_P1;PMS_P2;Temp;Humidity;BMP_temperature;BMP_pressure;BME280_temperature;BME280_humidity;BME280_pressure;Samples;Min_cycle;Max_cycle;Signal;HPM_P1;HPM_P2
2023/07/07 00:03:22;;;;;;;1.85;0.60;;;;;;;22.10;40.35;101793.84;16115576;19;130381;-55
2023/07/07 00:08:44;;;;;;;1.40;0.60;;;;;;;22.09;39.84;101788.53;16118589;19;130089;-57
2023/07/07 00:14:06;;;;;;;0.80;0.60;;;;;;;22.09;40.00;101785.75;16114088;19;130758;-57
2023/07/07 00:19:32;;;;;;;1.27;0.50;;;;;;;22.09;40.08;101786.59;16111103;19;131020;-58
2023/07/07 00:24:54;;;;;;;1.25;0.52;;;;;;;22.08;40.06;101793.25;16110824;19;130026;-58
2023/07/07 00:30:16;;;;;;;2.08;0.70;;;;;;;22.06;40.11;101787.06;16111744;19;130096;-58
2023/07/07 00:35:48;;;;;;;1.75;0.40;;;;;;;22.06;40.00;101792.66;16115131;19;131039;-59
2023/07/07 00:41:10;;;;;;;0.95;0.50;;;;;;;22.06;40.11;101794.59;16111103;19;130427;-58
2023/07/07 00:46:33;;;;;;;2.50;0.68;;;;;;;22.04;39.85;101792.03;16113562;19;129853;-58
2023/07/07 00:52:01;;;;;;;0.98;0.50;;;;;;;22.05;39.99;101804.06;16113721;19;130952;-58
2023/07/07 00:57:23;;;;;;;1.25;0.50;;;;;;;22.02;40.05;101794.25;16113770;19;131945;-58
2023/07/07 01:02:53;;;;;;;0.80;0.50;;;;;;;22.02;40.25;101797.03;16111470;19;129602;-57
2023/07/07 01:08:17;;;;;;;0.77;0.40;;;;;;;22.01;39.79;101800.94;16105571;19;130746;-58
2023/07/07 01:13:39;;;;;;;0.60;0.43;;;;;;;22.02;39.91;101796.19;16110064;19;131200;-57
2023/07/07 01:19:21;;;;;;;0.52;0.45;;;;;;;22.03;39.84;101800.66;16110647;19;129488;-57
2023/07/07 01:24:45;;;;;;;0.80;0.60;;;;;;;22.00;40.15;101799.22;16109777;19;130439;-58
2023/07/07 01:30:22;;;;;;;0.50;0.50;;;;;;;22.00;39.96;101792.78;16109568;19;130324;-58
2023/07/07 01:35:44;;;;;;;1.25;0.70;;;;;;;21.98;39.92;101790.28;16103946;19;130728;-58
2023/07/07 01:41:24;;;;;;;0.63;0.40;;;;;;;21.98;39.67;101793.06;16107794;19;129475;-58
2023/07/07 01:46:54;;;;;;;0.50;0.50;;;;;;;21.98;39.92;101790.28;16109873;19;129533;-57
2023/07/07 01:52:33;;;;;;;1.38;0.60;;;;;;;21.97;40.15;101789.41;16105908;19;129889;-58
2023/07/07 01:58:00;;;;;;;1.90;0.60;;;;;;;21.98;40.14;101790.28;16108815;19;129989;-58
2023/07/07 02:03:23;;;;;;;0.70;0.45;;;;;;;21.96;40.01;101789.66;16104473;19;129678;-58
2023/07/07 02:08:44;;;;;;;0.93;0.40;;;;;;;21.95;39.96;101796.31;16108489;19;130768;-58
2023/07/07 02:14:06;;;;;;;4.35;0.57;;;;;;;21.95;39.96;101787.97;16107043;19;129369;-56
2023/07/07 02:19:28;;;;;;;0.52;0.40;;;;;;;21.95;39.73;101783.25;16104158;19;132390;-58
2023/07/07 02:24:50;;;;;;;0.60;0.35;;;;;;;21.95;40.04;101785.19;16107769;19;130186;-59
2023/07/07 02:30:12;;;;;;;0.90;0.60;;;;;;;21.94;39.64;101777.91;16107768;19;129774;-57
2023/07/07 02:35:35;;;;;;;1.13;0.35;;;;;;;21.93;39.96;101773.44;16111063;19;131407;-57
2023/07/07 02:40:58;;;;;;;1.35;0.60;;;;;;;21.91;39.72;101776.50;16091690;19;130274;-59
2023/07/07 02:46:21;;;;;;;0.60;0.40;;;;;;;21.91;39.94;101779.28;16107519;19;129160;-57
2023/07/07 02:51:43;;;;;;;0.60;0.35;;;;;;;21.89;39.59;101781.44;16107000;19;131408;-57
2023/07/07 02:57:06;;;;;;;0.52;0.50;;;;;;;21.90;39.58;101780.38;16097949;19;129796;-58
2023/07/07 03:02:28;;;;;;;1.45;0.60;;;;;;;21.91;39.53;101784.00;16104290;19;129502;-59
2023/07/07 03:07:50;;;;;;;0.98;0.40;;;;;;;21.89;39.71;101787.03;16109677;19;130719;-56
2023/07/07 03:13:12;;;;;;;0.70;0.40;;;;;;;21.88;39.79;101785.34;16117888;19;131766;-58
2023/07/07 03:18:35;;;;;;;1.27;0.63;;;;;;;21.88;39.70;101784.50;16117533;19;129474;-58
2023/07/07 03:23:57;;;;;;;0.80;0.50;;;;;;;21.85;39.54;101783.03;16123533;19;130364;-58
2023/07/07 03:29:19;;;;;;;1.73;0.88;;;;;;;21.85;39.88;101779.41;16112396;19;131317;-58
2023/07/07 03:34:42;;;;;;;1.52;0.80;;;;;;;21.85;39.95;101771.06;16119549;19;129754;-59
2023/07/07 03:40:06;;;;;;;0.60;0.60;;;;;;;21.83;39.92;101782.47;16117954;19;131805;-56
2023/07/07 03:45:28;;;;;;;2.25;0.80;;;;;;;21.82;39.69;101775.19;16114734;19;132053;-58
2023/07/07 03:51:02;;;;;;;1.10;0.70;;;;;;;21.82;39.61;101786.34;16112912;19;130715;-58
2023/07/07 03:56:26;;;;;;;0.88;0.70;;;;;;;21.80;39.89;101789.34;16111662;19;131956;-58
2023/07/07 04:01:50;;;;;;;1.40;0.77;;;;;;;21.80;39.57;101783.78;16108994;19;131325;-59
2023/07/07 04:07:12;;;;;;;2.67;0.75;;;;;;;21.79;39.65;101793.22;16114296;19;130310;-59
2023/07/07 04:12:34;;;;;;;1.55;0.80;;;;;;;21.79;39.62;101790.44;16120503;19;130693;-58
2023/07/07 04:17:56;;;;;;;0.45;0.43;;;;;;;21.78;39.96;101786.00;16116786;19;130974;-56
2023/07/07 04:23:18;;;;;;;1.20;0.80;;;;;;;21.78;39.79;101791.56;16115589;19;129523;-58
2023/07/07 04:28:40;;;;;;;1.10;0.63;;;;;;;21.77;39.80;101794.56;16117506;19;129653;-56
2023/07/07 04:34:02;;;;;;;1.67;0.73;;;;;;;21.76;39.88;101796.53;16113578;19;130513;-57
2023/07/07 04:39:24;;;;;;;1.20;0.60;;;;;;;21.76;39.37;101796.53;16114890;19;130076;-57
2023/07/07 04:44:46;;;;;;;1.60;0.65;;;;;;;21.76;39.56;101793.75;16117630;19;129378;-58
2023/07/07 04:50:09;;;;;;;1.35;0.80;;;;;;;21.76;39.87;101804.03;16112625;19;129189;-58
2023/07/07 04:55:30;;;;;;;0.80;0.60;;;;;;;21.76;39.38;101804.88;16111813;19;130615;-58
2023/07/07 05:01:04;;;;;;;0.80;0.60;;;;;;;21.76;39.46;101796.53;16111308;19;130557;-59
2023/07/07 05:06:28;;;;;;;0.88;0.50;;;;;;;21.77;39.63;101798.22;16110034;19;131021;-56
2023/07/07 05:11:50;;;;;;;1.25;0.60;;;;;;;21.76;39.54;101788.19;16115621;19;129733;-58
2023/07/07 05:17:12;;;;;;;1.25;0.60;;;;;;;21.77;39.79;101791.78;16111014;19;130901;-59
2023/07/07 05:22:34;;;;;;;1.02;0.50;;;;;;;21.76;39.86;101793.75;16108575;19;131087;-56
2023/07/07 05:27:56;;;;;;;0.90;0.52;;;;;;;21.77;39.59;101792.66;16114834;19;130331;-56
2023/07/07 05:33:19;;;;;;;1.42;0.50;;;;;;;21.78;39.65;101811.06;16106378;19;131180;-58
2023/07/07 05:38:41;;;;;;;0.60;0.55;;;;;;;21.78;40.01;101808.28;16108843;19;130188;-58
2023/07/07 05:44:04;;;;;;;0.52;0.47;;;;;;;21.78;39.41;101812.97;16106349;19;129997;-58
2023/07/07 05:49:26;;;;;;;1.20;0.60;;;;;;;21.79;39.49;101811.88;16108256;19;131007;-58
2023/07/07 05:54:48;;;;;;;1.10;0.60;;;;;;;21.78;39.71;101815.75;16109145;19;130458;-57
2023/07/07 06:00:10;;;;;;;0.65;0.50;;;;;;;21.79;39.44;101812.72;16106586;19;130815;-57
2023/07/07 06:05:33;;;;;;;0.93;0.47;;;;;;;21.78;39.89;101819.41;16110382;19;129864;-58
2023/07/07 06:10:55;;;;;;;1.20;0.60;;;;;;;21.79;39.76;101823.03;16110530;19;130708;-57
2023/07/07 06:16:18;;;;;;;0.60;0.40;;;;;;;21.79;39.78;101823.88;16109305;19;131700;-57
2023/07/07 06:21:40;;;;;;;1.00;0.60;;;;;;;21.78;39.82;101819.41;16110890;19;129487;-56
2023/07/07 06:27:02;;;;;;;0.65;0.50;;;;;;;21.79;40.03;101823.88;16112009;19;129464;-57
2023/07/07 06:32:24;;;;;;;1.67;0.73;;;;;;;21.79;40.04;101823.88;16108996;19;129803;-57
2023/07/07 06:37:46;;;;;;;0.40;0.40;;;;;;;21.79;39.55;101826.66;16112169;19;129120;-58
2023/07/07 06:43:08;;;;;;;1.33;0.73;;;;;;;21.80;39.70;101844.22;16111843;19;130575;-58
2023/07/07 06:48:30;;;;;;;0.98;0.50;;;;;;;21.79;40.02;101843.34;16122514;19;130604;-59
2023/07/07 06:53:52;;;;;;;1.77;0.50;;;;;;;21.79;39.53;101837.78;16123461;19;131598;-58
2023/07/07 06:59:14;;;;;;;0.88;0.70;;;;;;;21.80;39.96;101836.69;16123651;19;131307;-58
2023/07/07 07:04:35;;;;;;;1.58;0.80;;;;;;;21.80;39.86;101845.06;16121200;19;129382;-58
2023/07/07 07:09:58;;;;;;;0.88;0.60;;;;;;;21.81;39.58;101845.91;16120381;19;129651;-58
2023/07/07 07:15:21;;;;;;;2.70;0.75;;;;;;;21.81;39.73;101843.97;16121500;19;130607;-57
2023/07/07 07:20:46;;;;;;;1.27;0.80;;;;;;;21.81;39.97;101841.19;16127369;19;130208;-59
2023/07/07 07:26:08;;;;;;;2.45;0.95;;;;;;;21.82;39.92;101842.03;16126194;19;129333;-56
2023/07/07 07:31:30;;;;;;;1.40;0.60;;;;;;;21.82;39.70;101831.75;16124521;19;130433;-55
2023/07/07 07:36:54;;;;;;;2.47;0.80;;;;;;;21.83;39.69;101838.16;16124045;19;131658;-57
2023/07/07 07:42:16;;;;;;;1.73;0.90;;;;;;;21.83;39.45;101841.78;16118491;19;131526;-57
2023/07/07 07:47:38;;;;;;;3.40;0.82;;;;;;;21.85;39.49;101835.13;16106486;19;131204;-57
2023/07/07 07:53:00;;;;;;;1.05;0.85;;;;;;;21.84;39.80;101839.88;16099355;19;131666;-58
2023/07/07 07:58:23;;;;;;;1.73;0.90;;;;;;;21.86;39.71;101836.81;16109733;19;130986;-58
2023/07/07 08:03:44;;;;;;;1.52;0.70;;;;;;;21.86;39.73;101836.81;16120181;19;129399;-58
2023/07/07 08:09:07;;;;;;;2.55;0.80;;;;;;;21.87;39.62;101830.16;16118409;19;130664;-57
2023/07/07 08:14:30;;;;;;;3.25;0.95;;;;;;;21.88;39.91;101834.66;16116495;19;129632;-58
2023/07/07 08:19:54;;;;;;;1.83;0.82;;;;;;;21.87;40.01;101836.56;16118955;19;129596;-58
2023/07/07 08:25:16;;;;;;;1.65;0.70;;;;;;;21.87;39.59;101833.78;16120070;19;129937;-58
2023/07/07 08:30:38;;;;;;;2.08;0.80;;;;;;;21.89;39.57;101830.75;16121350;19;134224;-58
2023/07/07 08:36:00;;;;;;;1.17;0.65;;;;;;;21.91;39.72;101836.94;16119889;19;130542;-58
2023/07/07 08:41:22;;;;;;;1.67;0.90;;;;;;;21.91;39.48;101842.50;16118717;19;129553;-56
2023/07/07 08:46:56;;;;;;;2.53;0.80;;;;;;;21.93;39.82;101837.50;16113663;19;129909;-58
2023/07/07 08:52:29;;;;;;;3.25;0.73;;;;;;;21.93;39.56;101835.59;16117739;19;133456;-58
2023/07/07 08:57:59;;;;;;;2.50;0.95;;;;;;;21.94;39.75;101833.63;16118509;19;130973;-58
2023/07/07 09:03:30;;;;;;;1.85;0.80;;;;;;;21.95;39.82;101824.19;16115581;19;130178;-58
2023/07/07 09:09:01;;;;;;;1.35;0.70;;;;;;;21.94;40.02;101828.06;16116819;19;129553;-58
2023/07/07 09:14:26;;;;;;;3.50;0.98;;;;;;;21.95;40.05;101824.19;16114178;19;131514;-59
2023/07/07 09:19:51;;;;;;;1.15;0.80;;;;;;;21.96;39.67;101820.31;16116362;19;129718;-58
2023/07/07 09:25:19;;;;;;;3.65;0.90;;;;;;;21.97;40.02;101819.22;16115069;19;134931;-58
2023/07/07 09:30:52;;;;;;;2.22;0.90;;;;;;;21.98;39.80;101818.13;16115210;19;129650;-57
2023/07/07 09:36:40;;;;;;;1.00;0.77;;;;;;;21.97;39.66;101822.00;16115026;19;129448;-59
2023/07/07 09:42:20;;;;;;;2.22;0.70;;;;;;;21.97;39.74;101827.59;16103516;19;130719;-58
2023/07/07 09:48:07;;;;;;;3.55;0.70;;;;;;;21.99;39.71;101822.63;16102215;19;129390;-57
2023/07/07 09:53:35;;;;;;;0.90;0.68;;;;;;;21.98;39.48;101824.53;16103357;19;130111;-59
2023/07/07 09:59:19;;;;;;;3.40;0.80;;;;;;;22.00;39.95;101815.94;16102173;19;132567;-58
2023/07/07 10:04:45;;;;;;;2.15;0.80;;;;;;;22.01;39.65;101816.78;16101952;19;130479;-59
2023/07/07 10:10:15;;;;;;;1.90;0.70;;;;;;;22.01;39.50;101820.44;16101642;19;131264;-58
2023/07/07 10:15:48;;;;;;;1.58;0.70;;;;;;;22.02;39.54;101810.13;16103934;19;129730;-57
2023/07/07 10:21:10;;;;;;;3.97;0.80;;;;;;;22.03;39.66;101804.28;16138283;19;129608;-58
2023/07/07 10:26:33;;;;;;;2.70;1.00;;;;;;;22.02;39.65;101802.63;16142908;19;130189;-58
2023/07/07 10:31:54;;;;;;;2.13;0.75;;;;;;;22.03;39.91;101795.94;16145480;19;129508;-58
2023/07/07 10:37:22;;;;;;;1.67;0.70;;;;;;;22.04;39.56;101800.41;16140794;19;129333;-58
2023/07/07 10:42:51;;;;;;;2.08;1.02;;;;;;;22.05;39.28;101793.75;16138372;19;131425;-58
2023/07/07 10:48:15;;;;;;;5.07;0.90;;;;;;;22.04;39.59;101794.84;16143143;19;133663;-58
2023/07/07 10:54:21;;;;;;;1.38;0.88;;;;;;;22.06;39.23;101789.88;16141682;19;130113;-59
2023/07/07 11:00:01;;;;;;;1.88;0.98;;;;;;;22.09;39.46;101791.31;16131131;19;130888;-59
2023/07/07 11:05:45;;;;;;;3.63;0.60;;;;;;;22.08;39.70;101784.88;16124835;19;131029;-59
2023/07/07 11:11:36;;;;;;;5.65;1.10;;;;;;;22.09;39.35;101789.38;16131410;19;129937;-57
2023/07/07 11:17:07;;;;;;;3.83;0.93;;;;;;;22.10;39.62;101793.84;16136494;19;131601;-59
2023/07/07 11:23:02;;;;;;;2.47;1.00;;;;;;;22.11;39.29;101786.31;16138014;19;129545;-59
2023/07/07 11:28:29;;;;;;;6.47;1.00;;;;;;;22.10;39.14;101776.28;16134175;19;129696;-59
2023/07/07 11:34:06;;;;;;;2.88;0.90;;;;;;;22.11;39.19;101773.25;16124851;19;130241;-59
2023/07/07 11:39:56;;;;;;;2.53;0.73;;;;;;;22.12;39.28;101774.94;16121638;19;129052;-59
2023/07/07 11:46:03;;;;;;;6.05;1.02;;;;;;;22.12;39.35;101780.53;16121620;19;134005;-59
2023/07/07 11:52:06;;;;;;;2.00;0.83;;;;;;;22.12;39.53;101772.16;16121010;19;130202;-59
2023/07/07 11:57:54;;;;;;;2.45;0.85;;;;;;;22.12;39.47;101768.50;16121008;19;130531;-59
2023/07/07 12:03:25;;;;;;;2.38;0.73;;;;;;;22.11;39.28;101762.09;16122121;19;130520;-59
2023/07/07 12:09:00;;;;;;;3.67;1.23;;;;;;;22.13;39.21;101751.56;16121997;19;130431;-59
2023/07/07 12:14:46;;;;;;;2.25;0.80;;;;;;;22.15;39.18;101754.09;16120526;19;131277;-59
2023/07/07 12:20:15;;;;;;;2.92;0.85;;;;;;;22.14;39.31;101746.81;16119011;19;130094;-59
2023/07/07 12:25:37;;;;;;;2.28;0.90;;;;;;;22.16;39.42;101746.56;16121099;19;130204;-59
2023/07/07 12:31:00;;;;;;;1.33;0.82;;;;;;;22.16;39.22;101735.41;16116230;19;129537;-58
2023/07/07 12:36:30;;;;;;;1.88;0.93;;;;;;;22.16;39.37;101719.56;16116720;19;131102;-59
2023/07/07 12:41:53;;;;;;;2.03;1.00;;;;;;;22.17;39.43;101714.81;16117094;19;130118;-59
2023/07/07 12:47:30;;;;;;;2.65;0.80;;;;;;;22.17;39.33;101714.81;16117670;19;131319;-59
2023/07/07 12:52:57;;;;;;;0.98;0.82;;;;;;;22.18;39.50;101709.00;16119443;19;129444;-61
2023/07/07 12:58:22;;;;;;;1.00;0.75;;;;;;;22.19;39.42;101705.13;16113171;19;130030;-57
2023/07/07 13:04:10;;;;;;;1.50;0.73;;;;;;;22.20;39.22;101697.59;16115167;19;129257;-59
2023/07/07 13:09:52;;;;;;;1.65;0.90;;;;;;;22.19;39.10;101695.91;16115172;19;129580;-59
2023/07/07 13:15:24;;;;;;;1.67;1.00;;;;;;;22.20;39.14;101697.59;16118464;19;130754;-59
2023/07/07 13:20:50;;;;;;;1.40;0.80;;;;;;;22.22;39.55;101687.06;16113878;19;129041;-59
2023/07/07 13:26:26;;;;;;;3.70;1.05;;;;;;;22.21;39.27;101689.03;16112907;19;130723;-59
2023/07/07 13:31:48;;;;;;;2.03;1.00;;;;;;;22.20;39.36;101690.09;16112040;19;129842;-58
2023/07/07 13:37:10;;;;;;;1.83;0.90;;;;;;;22.22;39.29;101678.72;16112590;19;129623;-59
2023/07/07 13:42:35;;;;;;;1.58;1.00;;;;;;;22.23;39.31;101691.56;16112043;19;132205;-58
2023/07/07 13:47:58;;;;;;;2.20;1.03;;;;;;;22.22;39.35;101684.28;16107873;19;131185;-58
2023/07/07 13:53:21;;;;;;;1.23;0.95;;;;;;;22.25;39.41;101681.00;16104587;19;129970;-58
2023/07/07 13:58:46;;;;;;;1.23;0.93;;;;;;;22.26;39.08;101679.91;16108130;19;129555;-57
2023/07/07 14:04:14;;;;;;;3.10;1.00;;;;;;;22.26;39.31;101680.72;16110505;19;129551;-58
2023/07/07 14:09:42;;;;;;;2.10;1.13;;;;;;;22.28;39.03;101688.84;16114249;19;129054;-58
2023/07/07 14:15:05;;;;;;;3.55;1.20;;;;;;;22.27;39.59;101673.22;16112839;19;129488;-58
2023/07/07 14:20:33;;;;;;;2.80;1.00;;;;;;;22.29;39.16;101668.22;16110275;19;130962;-59
2023/07/07 14:25:57;;;;;;;2.72;1.45;;;;;;;22.29;38.91;101662.66;16111213;19;130323;-58
2023/07/07 14:31:19;;;;;;;2.03;1.20;;;;;;;22.29;39.38;101665.44;16111556;19;129594;-58
2023/07/07 14:36:45;;;;;;;5.63;1.92;;;;;;;22.31;39.08;101671.59;16109185;19;129836;-59
2023/07/07 14:42:18;;;;;;;2.33;1.30;;;;;;;22.34;39.07;101665.53;16109815;19;130653;-58
2023/07/07 14:47:40;;;;;;;2.03;1.40;;;;;;;22.31;38.97;101660.47;16112851;19;130910;-58
2023/07/07 14:53:02;;;;;;;2.13;1.70;;;;;;;22.33;38.83;101649.91;16111755;19;129680;-59
2023/07/07 14:58:25;;;;;;;4.13;1.77;;;;;;;22.33;38.69;101640.72;16104406;19;129594;-59
2023/07/07 15:03:49;;;;;;;7.22;1.65;;;;;;;22.34;39.12;101654.38;16111424;19;129966;-59
2023/07/07 15:09:11;;;;;;;5.78;2.22;;;;;;;22.34;39.07;101634.88;16127413;19;131135;-58
2023/07/07 15:14:33;;;;;;;4.65;2.00;;;;;;;22.36;38.88;101634.59;16122920;19;133232;-58
2023/07/07 15:19:55;;;;;;;3.58;1.88;;;;;;;22.35;38.74;101628.19;16122424;19;130312;-56
2023/07/07 15:25:17;;;;;;;2.35;1.85;;;;;;;22.36;38.70;101631.81;16122627;19;130975;-58
2023/07/07 15:30:39;;;;;;;6.50;2.25;;;;;;;22.38;38.51;101638.84;16119065;19;129392;-58
2023/07/07 15:36:01;;;;;;;4.47;1.80;;;;;;;22.38;38.57;101626.84;16117313;19;129304;-58
2023/07/07 15:41:26;;;;;;;5.10;1.92;;;;;;;22.38;38.70;101616.53;16117446;19;129987;-59
2023/07/07 15:46:47;;;;;;;6.18;2.10;;;;;;;22.38;38.66;101608.19;16118875;19;129759;-59
2023/07/07 15:52:15;;;;;;;3.47;1.95;;;;;;;22.39;38.17;101604.28;16118772;19;130767;-57
2023/07/07 15:57:37;;;;;;;2.42;1.90;;;;;;;22.39;38.30;101601.50;16127467;19;130656;-59
2023/07/07 16:02:59;;;;;;;4.30;2.10;;;;;;;22.39;38.31;101601.50;16126841;19;130813;-54
2023/07/07 16:08:22;;;;;;;3.60;2.47;;;;;;;22.41;38.42;101599.28;16117319;19;131739;-55
2023/07/07 16:13:45;;;;;;;5.20;2.47;;;;;;;22.41;38.50;101590.91;16119687;19;131395;-55
2023/07/07 16:19:12;;;;;;;4.28;2.13;;;;;;;22.44;38.47;101597.94;16120214;19;129604;-55
2023/07/07 16:24:34;;;;;;;4.75;2.42;;;;;;;22.44;38.43;101581.22;16121733;19;130797;-56
2023/07/07 16:29:56;;;;;;;3.80;2.40;;;;;;;22.44;38.35;101584.00;16120628;19;130783;-57
2023/07/07 16:35:18;;;;;;;3.50;2.38;;;;;;;22.44;38.41;101581.22;16122473;19;134148;-55
2023/07/07 16:40:42;;;;;;;6.72;2.50;;;;;;;22.44;38.77;101570.91;16120710;19;131558;-55
2023/07/07 16:46:12;;;;;;;5.82;2.28;;;;;;;22.46;38.25;101573.44;16117507;19;130922;-55
2023/07/07 16:51:37;;;;;;;3.13;2.30;;;;;;;22.46;38.59;101567.00;16114992;19;130886;-55
2023/07/07 16:56:59;;;;;;;3.47;2.00;;;;;;;22.45;38.27;101563.41;16113806;19;129670;-54
2023/07/07 17:02:21;;;;;;;2.65;1.98;;;;;;;22.46;38.31;101561.44;16114094;19;130362;-53
2023/07/07 17:07:43;;;;;;;3.03;2.20;;;;;;;22.47;38.37;101560.34;16108131;19;130331;-59
2023/07/07 17:13:06;;;;;;;3.20;2.10;;;;;;;22.48;38.37;101553.66;16114424;19;129662;-56
2023/07/07 17:18:28;;;;;;;4.45;2.53;;;;;;;22.48;38.12;101562.84;16111082;19;131876;-58
2023/07/07 17:23:50;;;;;;;4.15;1.90;;;;;;;22.49;38.23;101561.75;16114365;19;129282;-59
2023/07/07 17:29:14;;;;;;;3.28;2.13;;;;;;;22.49;38.26;101553.41;16112437;19;129926;-58
2023/07/07 17:34:36;;;;;;;5.22;2.20;;;;;;;22.48;38.24;101554.50;16113616;19;130311;-57
2023/07/07 17:39:58;;;;;;;4.10;2.30;;;;;;;22.50;38.41;101551.47;16113669;19;130530;-56
2023/07/07 17:45:20;;;;;;;2.90;1.90;;;;;;;22.50;38.46;101540.31;16110279;19;132002;-58
2023/07/07 17:50:47;;;;;;;2.60;2.20;;;;;;;22.51;38.17;101547.59;16109552;19;130739;-56
2023/07/07 17:56:20;;;;;;;2.47;2.17;;;;;;;22.52;38.36;101544.53;16111387;19;129762;-56
2023/07/07 18:01:42;;;;;;;4.05;1.90;;;;;;;22.51;38.46;101544.78;16109918;19;131341;-57
2023/07/07 18:07:04;;;;;;;3.20;2.10;;;;;;;22.53;38.75;101542.56;16110532;19;129722;-59
2023/07/07 18:12:26;;;;;;;4.45;2.47;;;;;;;22.53;38.18;101545.34;16112278;19;129328;-56
2023/07/07 18:17:49;;;;;;;4.28;2.25;;;;;;;22.54;38.70;101547.03;16106414;19;130694;-56
2023/07/07 18:23:31;;;;;;;3.72;2.33;;;;;;;22.54;38.40;101547.91;16108411;19;129832;-55
2023/07/07 18:28:58;;;;;;;4.13;2.40;;;;;;;22.54;38.65;101545.13;16106552;19;129549;-57
2023/07/07 18:34:20;;;;;;;3.00;2.30;;;;;;;22.54;38.28;101555.41;16103082;19;130307;-55
2023/07/07 18:39:46;;;;;;;3.65;2.20;;;;;;;22.54;38.34;101552.63;16110831;19;130777;-57
2023/07/07 18:45:09;;;;;;;5.13;2.40;;;;;;;22.54;38.55;101549.84;16117739;19;131125;-57
2023/07/07 18:50:36;;;;;;;2.80;2.03;;;;;;;22.54;38.50;101553.47;16117299;19;130929;-55
2023/07/07 18:55:58;;;;;;;2.28;2.00;;;;;;;22.53;38.41;101557.38;16124457;19;129429;-56
2023/07/07 19:01:22;;;;;;;3.17;2.25;;;;;;;22.54;38.35;101547.91;16123141;19;131646;-58
2023/07/07 19:06:44;;;;;;;2.97;2.33;;;;;;;22.53;38.16;101548.13;16121368;19;129603;-57
2023/07/07 19:12:12;;;;;;;3.05;2.20;;;;;;;22.54;38.38;101549.84;16124922;19;129584;-57
2023/07/07 19:17:35;;;;;;;3.13;2.10;;;;;;;22.54;38.25;101547.03;16122104;19;129641;-57
2023/07/07 19:22:59;;;;;;;3.33;1.90;;;;;;;22.54;38.70;101547.03;16122358;19;130675;-57
2023/07/07 19:28:28;;;;;;;3.90;1.92;;;;;;;22.56;38.40;101558.78;16119920;19;129383;-58
2023/07/07 19:33:50;;;;;;;6.10;2.40;;;;;;;22.57;38.58;101555.75;16120060;19;129884;-61
2023/07/07 19:39:18;;;;;;;8.02;2.45;;;;;;;22.69;38.78;101566.78;16126499;19;130055;-60
2023/07/07 19:44:41;;;;;;;5.05;2.97;;;;;;;22.80;38.58;101564.97;16124721;19;129715;-58
2023/07/07 19:50:17;;;;;;;13.10;3.00;;;;;;;22.91;38.49;101563.16;16117153;19;131991;-61
2023/07/07 19:55:39;;;;;;;8.20;2.92;;;;;;;22.97;38.71;101566.84;16117598;19;131772;-58
2023/07/07 20:01:10;;;;;;;8.40;3.50;;;;;;;23.04;38.30;101565.56;16120483;19;131293;-63
2023/07/07 20:06:36;;;;;;;6.00;2.63;;;;;;;23.08;38.50;101553.88;16118345;19;130685;-60
2023/07/07 20:12:04;;;;;;;6.28;3.10;;;;;;;23.13;38.52;101559.53;16118179;19;130035;-61
2023/07/07 20:17:26;;;;;;;6.20;3.10;;;;;;;23.16;38.46;101559.00;16121187;19;131337;-59
2023/07/07 20:22:48;;;;;;;5.13;3.05;;;;;;;23.20;37.85;101560.16;16118328;19;129941;-60
2023/07/07 20:28:17;;;;;;;3.78;2.60;;;;;;;23.24;38.27;101561.31;16118163;19;129851;-59
2023/07/07 20:33:39;;;;;;;8.70;3.00;;;;;;;23.25;38.23;101563.03;16112588;19;130499;-57
2023/07/07 20:39:01;;;;;;;4.63;2.85;;;;;;;23.27;38.10;101558.00;16113509;19;130828;-55
2023/07/07 20:44:23;;;;;;;5.75;2.92;;;;;;;23.30;37.74;101559.44;16114604;19;130273;-61
2023/07/07 20:49:45;;;;;;;4.88;2.80;;;;;;;23.32;37.80;101557.22;16118393;19;131047;-59
2023/07/07 20:55:09;;;;;;;4.43;2.78;;;;;;;23.33;37.59;101559.75;16113788;19;130556;-56
2023/07/07 21:00:36;;;;;;;6.95;2.90;;;;;;;23.35;37.41;101560.31;16113663;19;129951;-61
2023/07/07 21:05:58;;;;;;;5.63;3.13;;;;;;;23.28;37.47;101550.47;16122431;19;135168;-61
2023/07/07 21:11:20;;;;;;;4.15;2.80;;;;;;;23.23;37.94;101548.47;16113745;19;129253;-60
2023/07/07 21:16:46;;;;;;;6.93;3.00;;;;;;;23.19;37.99;101548.16;16113168;19;130071;-61
2023/07/07 21:22:09;;;;;;;7.05;2.95;;;;;;;23.15;37.90;101547.00;16110782;19;130107;-59
2023/07/07 21:27:31;;;;;;;5.30;2.60;;;;;;;23.11;37.90;101554.19;16103818;19;131160;-60
2023/07/07 21:32:54;;;;;;;5.43;2.65;;;;;;;23.08;38.15;101551.91;16111281;19;130593;-59
2023/07/07 21:38:16;;;;;;;6.18;2.78;;;;;;;23.04;37.70;101551.59;16108491;19;129354;-59
2023/07/07 21:43:38;;;;;;;4.70;2.78;;;;;;;23.02;38.00;101564.97;16112412;19;130902;-59
2023/07/07 21:49:00;;;;;;;6.28;2.45;;;;;;;23.01;38.02;101565.25;16108757;19;129460;-59
2023/07/07 21:54:22;;;;;;;6.80;2.15;;;;;;;22.98;38.33;101561.03;16109958;19;130775;-59
2023/07/07 21:59:44;;;;;;;3.30;2.33;;;;;;;22.96;38.03;101557.66;16112793;19;130751;-58
2023/07/07 22:05:08;;;;;;;3.33;2.55;;;;;;;22.95;37.90;101575.50;16107521;19;131119;-59
2023/07/07 22:10:39;;;;;;;3.13;2.58;;;;;;;22.95;38.02;101580.25;16111833;19;129497;-59
2023/07/07 22:16:16;;;;;;;5.47;2.10;;;;;;;22.93;38.16;101576.88;16108663;19;130478;-59
2023/07/07 22:21:38;;;;;;;4.65;2.17;;;;;;;22.89;38.08;101559.78;16111192;19;130555;-58
2023/07/07 22:27:00;;;;;;;2.63;2.13;;;;;;;22.88;38.05;101558.09;16105918;19;129706;-59
2023/07/07 22:32:22;;;;;;;3.47;1.90;;;;;;;22.86;38.48;101555.53;16109204;19;129708;-62
2023/07/07 22:37:44;;;;;;;2.72;1.83;;;;;;;22.85;38.06;101553.84;16104331;19;129894;-59
2023/07/07 22:43:07;;;;;;;1.95;1.73;;;;;;;22.84;38.26;101552.16;16108555;19;130501;-59
2023/07/07 22:48:29;;;;;;;3.17;2.10;;;;;;;22.83;38.17;101544.06;16107436;19;131455;-60
2023/07/07 22:53:54;;;;;;;2.50;1.80;;;;;;;22.82;38.02;101542.38;16100503;19;129950;-60
2023/07/07 22:59:20;;;;;;;3.60;2.05;;;;;;;22.81;38.07;101540.69;16105053;19;130090;-59
2023/07/07 23:04:42;;;;;;;3.67;2.08;;;;;;;22.80;38.19;101533.44;16107205;19;131194;-60
2023/07/07 23:10:05;;;;;;;3.00;1.92;;;;;;;22.78;38.19;101524.47;16097569;19;129452;-62
2023/07/07 23:15:27;;;;;;;4.55;1.98;;;;;;;22.76;38.20;101530.31;16104655;19;131165;-60
2023/07/07 23:20:49;;;;;;;4.68;1.80;;;;;;;22.76;38.25;101523.91;16102653;19;129470;-60
2023/07/07 23:26:26;;;;;;;3.05;1.60;;;;;;;22.73;38.34;101523.31;16115319;19;130345;-59
2023/07/07 23:31:49;;;;;;;3.20;1.90;;;;;;;22.72;38.41;101516.06;16117600;19;131441;-60
2023/07/07 23:37:25;;;;;;;2.25;1.83;;;;;;;22.73;38.22;101505.72;16113683;19;130199;-60
2023/07/07 23:42:47;;;;;;;3.25;1.70;;;;;;;22.70;38.55;101507.09;16116121;19;129243;-59
2023/07/07 23:48:10;;;;;;;2.83;1.83;;;;;;;22.70;38.04;101500.69;16121258;19;129919;-60
2023/07/07 23:53:32;;;;;;;2.15;1.60;;;;;;;22.69;38.12;101491.47;16118617;19;129917;-61
2023/07/07 23:58:54;;;;;;;1.85;1.42;;;;;;;22.67;38.17;101493.66;16119074;19;130706;-60
